CDT,Max TemperatureF,Mean TemperatureF,Min TemperatureF,Max Dew PointF,MeanDew PointF,Min DewpointF,Max Humidity, Mean Humidity, Min Humidity, Max Sea Level PressureIn, Mean Sea Level PressureIn, Min Sea Level PressureIn, Max VisibilityMiles, Mean VisibilityMiles, Min VisibilityMiles, Max Wind SpeedMPH, Mean Wind SpeedMPH, Max Gust SpeedMPH,PrecipitationIn, CloudCover, Events, WindDirDegrees
2012-10-1,77,61,45,48,45,41,86,61,36,29.90,29.87,29.82,10,10,10,12,8,14,0.00,0,,351
2012-10-2,75,61,46,51,47,42,86,62,38,29.94,29.89,29.84,10,10,7,2,4,2,0.00,0,,358
2012-10-3,78,60,41,49,44,40,96,64,32,29.96,29.91,29.86,10,10,6,10,5,14,0.00,0,,164
2012-10-4,60,49,37,46,38,30,80,60,40,30.25,30.09,29.90,10,10,7,13,14,15,T,2,,287
2012-10-5,50,39,27,29,24,17,85,57,29,30.27,30.23,30.18,10,10,9,12,11,16,0.00,0,,289
2012-10-6,43,34,24,27,24,19,81,66,51,30.30,30.27,30.22,10,10,10,15,10,18,0.00,5,,310
2012-10-7,53,37,20,25,21,18,88,59,29,30.27,30.19,30.05,10,10,2,10,7,15,0.00,1,,248
2012-10-8,67,53,39,35,32,24,70,50,29,30.04,29.92,29.80,10,10,10,26,17,37,0.00,1,,200
2012-10-9,59,46,33,45,38,29,86,68,50,30.07,29.90,29.80,10,9,4,15,10,18,0.11,3,Rain,268
2012-10-10,47,42,28,33,26,23,85,58,30,30.20,30.12,30.07,10,10,10,14,9,18,0.00,0,,247
2012-10-11,63,51,38,37,32,26,62,49,36,30.35,30.11,30.02,10,10,10,23,14,26,T,1,Rain,266
2012-10-12,57,43,28,41,25,17,77,50,22,30.46,30.30,30.10,10,10,7,17,11,21,0.16,2,Rain-Thunderstorm,109
2012-10-13,72,61,49,65,57,43,100,90,79,30.06,29.82,29.65,10,8,2,24,13,29,0.81,7,Rain-Thunderstorm,176
2012-10-14,62,53,43,64,52,39,100,83,66,29.92,29.67,29.51,10,9,4,10,14,14,0.61,7,Rain-Thunderstorm,317
2012-10-15,65,50,35,43,40,34,85,64,43,30.01,29.93,29.85,10,10,8,9,5,13,0.00,0,,252
2012-10-16,74,61,48,53,48,42,86,66,46,29.83,29.56,29.41,10,10,9,21,11,24,0.00,0,,186
2012-10-17,63,55,46,54,47,36,80,66,51,29.45,29.39,29.33,10,10,10,24,15,33,0.02,5,Rain,244
2012-10-18,48,45,41,45,41,34,100,80,60,29.40,29.35,29.31,10,9,5,12,16,14,0.15,8,Rain,268
2012-10-19,51,46,43,46,45,42,100,93,86,29.76,29.58,29.40,10,9,2,23,10,26,0.04,8,Rain,299
2012-10-20,56,49,41,46,43,40,100,83,66,29.88,29.82,29.75,10,10,9,9,5,13,0.00,6,,231
2012-10-21,74,58,42,57,50,41,96,75,53,29.87,29.84,29.79,10,10,10,15,11,,0.00,1,,137
2012-10-22,73,67,60,66,63,57,100,90,79,29.85,29.81,29.79,10,7,1,13,8,15,0.31,7,Rain-Thunderstorm,125
2012-10-23,73,68,63,65,64,62,100,90,79,29.80,29.76,29.70,10,8,2,13,11,16,0.00,6,,164
2012-10-24,74,68,61,68,65,61,100,87,73,29.80,29.75,29.64,10,8,2,20,9,25,0.00,5,,164
2012-10-25,62,49,36,61,45,27,100,82,64,30.27,29.80,29.55,10,9,4,13,19,17,0.13,8,Rain-Thunderstorm,327
2012-10-26,44,36,27,30,27,24,92,73,53,30.45,30.41,30.30,10,10,10,22,10,26,0.00,4,,311
2012-10-27,44,36,28,30,26,22,89,67,45,30.42,30.36,30.31,10,10,10,10,3,12,0.00,4,,336
2012-10-28,48,36,23,26,21,20,88,61,34,30.39,30.34,30.30,10,10,10,8,3,13,0.00,0,,99
2012-10-29,49,37,24,32,26,20,85,68,50,30.36,30.30,30.20,10,10,7,15,6,18,0.00,3,,110
2012-10-30,54,40,25,30,26,21,88,62,35,30.20,30.10,30.01,10,10,10,18,10,22,0.00,0,,7
2012-10-31,53,38,23,27,24,19,85,56,26,30.06,30.02,29.98,10,10,10,16,8,20,0.00,0,,314